Annapolis Junction, Maryland
Current Conditions -  °F | °C
As of 8:48 PM on Wednesday 26 Nov 2014 (Local Time) from KFME Reporting Station
Overcast Overcast  
Wind Chill: 30°   Ceiling: 7500
Heat Index: 34°   Visibility: 10mi
Dew Point: 32°   Wind: 5mph
Humidity: 93%   Direction: 310°NW
Pressure: 29.97"   Gusts: NA
Location:  39.13°N, 76.8°W
Report Text: KFME 270148Z AUTO 31004KT 10SM BKN075 OVC085 01/00 A2997 RMK AO1
Loading
Personal Weather Stations






























Interactive Weather Map New forecast layout! Learn more

10-Day Weather Forecast

Advertisements
Track Severe Weather on mobile